sensor_id;sensor_type;location;lat;lon;timestamp;P1;durP1;ratioP1;P2;durP2;ratioP2
52668;SDS011;59898;52.786;6.892;2023-08-30T00:00:01;13.13;;;11.05;;
52668;SDS011;59898;52.786;6.892;2023-08-30T00:03:22;12.73;;;11.43;;
52668;SDS011;59898;52.786;6.892;2023-08-30T00:06:42;13.13;;;11.35;;
52668;SDS011;59898;52.786;6.892;2023-08-30T00:10:03;12.93;;;11.57;;
52668;SDS011;59898;52.786;6.892;2023-08-30T00:13:25;13.07;;;11.15;;
52668;SDS011;59898;52.786;6.892;2023-08-30T00:16:46;12.15;;;10.93;;
52668;SDS011;59898;52.786;6.892;2023-08-30T00:20:07;13.82;;;12.10;;
52668;SDS011;59898;52.786;6.892;2023-08-30T00:23:28;12.80;;;11.47;;
52668;SDS011;59898;52.786;6.892;2023-08-30T00:26:49;13.88;;;11.10;;
52668;SDS011;59898;52.786;6.892;2023-08-30T00:30:10;12.63;;;11.30;;
52668;SDS011;59898;52.786;6.892;2023-08-30T00:33:31;12.82;;;10.73;;
52668;SDS011;59898;52.786;6.892;2023-08-30T00:36:52;12.85;;;11.38;;
52668;SDS011;59898;52.786;6.892;2023-08-30T00:40:12;13.23;;;11.90;;
52668;SDS011;59898;52.786;6.892;2023-08-30T00:43:33;14.15;;;12.32;;
52668;SDS011;59898;52.786;6.892;2023-08-30T00:46:54;17.52;;;12.45;;
52668;SDS011;59898;52.786;6.892;2023-08-30T00:50:14;12.90;;;11.60;;
52668;SDS011;59898;52.786;6.892;2023-08-30T00:53:36;13.93;;;11.95;;
52668;SDS011;59898;52.786;6.892;2023-08-30T00:56:57;14.23;;;11.70;;
52668;SDS011;59898;52.786;6.892;2023-08-30T01:00:20;13.48;;;11.52;;
52668;SDS011;59898;52.786;6.892;2023-08-30T01:03:40;11.38;;;10.27;;
52668;SDS011;59898;52.786;6.892;2023-08-30T01:07:01;11.75;;;10.55;;
52668;SDS011;59898;52.786;6.892;2023-08-30T01:10:24;13.75;;;11.50;;
52668;SDS011;59898;52.786;6.892;2023-08-30T01:14:00;13.43;;;11.98;;
52668;SDS011;59898;52.786;6.892;2023-08-30T01:17:32;12.70;;;11.40;;
52668;SDS011;59898;52.786;6.892;2023-08-30T01:20:53;16.15;;;10.65;;
52668;SDS011;59898;52.786;6.892;2023-08-30T01:24:17;14.07;;;12.27;;
52668;SDS011;59898;52.786;6.892;2023-08-30T01:27:51;14.27;;;12.77;;
52668;SDS011;59898;52.786;6.892;2023-08-30T01:31:13;14.35;;;12.07;;
52668;SDS011;59898;52.786;6.892;2023-08-30T01:34:38;15.68;;;12.93;;
52668;SDS011;59898;52.786;6.892;2023-08-30T01:37:59;14.02;;;11.80;;
52668;SDS011;59898;52.786;6.892;2023-08-30T01:41:22;12.10;;;10.80;;
52668;SDS011;59898;52.786;6.892;2023-08-30T01:44:43;13.23;;;11.82;;
52668;SDS011;59898;52.786;6.892;2023-08-30T01:48:05;16.10;;;11.82;;
52668;SDS011;59898;52.786;6.892;2023-08-30T01:51:28;12.57;;;11.30;;
52668;SDS011;59898;52.786;6.892;2023-08-30T01:54:50;17.23;;;12.38;;
52668;SDS011;59898;52.786;6.892;2023-08-30T01:58:13;14.15;;;12.65;;
52668;SDS011;59898;52.786;6.892;2023-08-30T02:01:34;14.07;;;11.93;;
52668;SDS011;59898;52.786;6.892;2023-08-30T02:04:54;14.40;;;12.82;;
52668;SDS011;59898;52.786;6.892;2023-08-30T02:08:15;15.25;;;13.65;;
52668;SDS011;59898;52.786;6.892;2023-08-30T02:11:37;15.65;;;13.15;;
52668;SDS011;59898;52.786;6.892;2023-08-30T02:14:59;17.42;;;13.80;;
52668;SDS011;59898;52.786;6.892;2023-08-30T02:18:21;15.25;;;13.75;;
52668;SDS011;59898;52.786;6.892;2023-08-30T02:21:43;18.92;;;14.45;;
52668;SDS011;59898;52.786;6.892;2023-08-30T02:25:04;15.38;;;13.20;;
52668;SDS011;59898;52.786;6.892;2023-08-30T02:28:25;17.08;;;14.40;;
52668;SDS011;59898;52.786;6.892;2023-08-30T02:31:45;16.30;;;14.27;;
52668;SDS011;59898;52.786;6.892;2023-08-30T02:35:06;17.48;;;14.40;;
52668;SDS011;59898;52.786;6.892;2023-08-30T02:38:27;17.55;;;13.18;;
52668;SDS011;59898;52.786;6.892;2023-08-30T02:41:47;16.50;;;14.65;;
52668;SDS011;59898;52.786;6.892;2023-08-30T02:45:08;16.77;;;14.32;;
52668;SDS011;59898;52.786;6.892;2023-08-30T02:48:29;16.52;;;14.73;;
52668;SDS011;59898;52.786;6.892;2023-08-30T02:51:49;16.17;;;14.40;;
52668;SDS011;59898;52.786;6.892;2023-08-30T02:55:10;16.77;;;13.27;;
52668;SDS011;59898;52.786;6.892;2023-08-30T02:58:31;15.68;;;14.00;;
52668;SDS011;59898;52.786;6.892;2023-08-30T03:01:51;14.55;;;12.75;;
52668;SDS011;59898;52.786;6.892;2023-08-30T03:05:12;15.85;;;12.88;;
52668;SDS011;59898;52.786;6.892;2023-08-30T03:08:32;17.33;;;14.05;;
52668;SDS011;59898;52.786;6.892;2023-08-30T03:11:53;17.02;;;13.95;;
52668;SDS011;59898;52.786;6.892;2023-08-30T03:15:13;16.83;;;13.77;;
52668;SDS011;59898;52.786;6.892;2023-08-30T03:18:34;15.88;;;13.98;;
52668;SDS011;59898;52.786;6.892;2023-08-30T03:21:54;15.80;;;13.65;;
52668;SDS011;59898;52.786;6.892;2023-08-30T03:25:15;15.88;;;14.07;;
52668;SDS011;59898;52.786;6.892;2023-08-30T03:28:36;15.35;;;13.32;;
52668;SDS011;59898;52.786;6.892;2023-08-30T03:31:57;17.33;;;14.65;;
52668;SDS011;59898;52.786;6.892;2023-08-30T03:35:17;15.70;;;13.82;;
52668;SDS011;59898;52.786;6.892;2023-08-30T03:38:40;17.48;;;14.10;;
52668;SDS011;59898;52.786;6.892;2023-08-30T03:42:01;18.73;;;14.02;;
52668;SDS011;59898;52.786;6.892;2023-08-30T03:45:22;19.65;;;13.57;;
52668;SDS011;59898;52.786;6.892;2023-08-30T03:48:43;18.63;;;14.52;;
52668;SDS011;59898;52.786;6.892;2023-08-30T03:52:03;16.95;;;13.70;;
52668;SDS011;59898;52.786;6.892;2023-08-30T03:55:24;16.92;;;13.70;;
52668;SDS011;59898;52.786;6.892;2023-08-30T03:58:45;15.80;;;13.23;;
52668;SDS011;59898;52.786;6.892;2023-08-30T04:02:05;17.77;;;14.48;;
52668;SDS011;59898;52.786;6.892;2023-08-30T04:05:26;16.23;;;14.52;;
52668;SDS011;59898;52.786;6.892;2023-08-30T04:08:46;18.17;;;14.60;;
52668;SDS011;59898;52.786;6.892;2023-08-30T04:12:07;15.15;;;13.55;;
52668;SDS011;59898;52.786;6.892;2023-08-30T04:15:27;14.77;;;12.82;;
52668;SDS011;59898;52.786;6.892;2023-08-30T04:18:48;20.08;;;13.55;;
52668;SDS011;59898;52.786;6.892;2023-08-30T04:22:08;17.42;;;13.63;;
52668;SDS011;59898;52.786;6.892;2023-08-30T04:25:29;18.25;;;13.15;;
52668;SDS011;59898;52.786;6.892;2023-08-30T04:28:50;16.35;;;13.55;;
52668;SDS011;59898;52.786;6.892;2023-08-30T04:32:11;15.43;;;12.65;;
52668;SDS011;59898;52.786;6.892;2023-08-30T04:35:31;14.48;;;12.52;;
52668;SDS011;59898;52.786;6.892;2023-08-30T04:38:52;14.60;;;11.73;;
52668;SDS011;59898;52.786;6.892;2023-08-30T04:42:13;16.08;;;12.18;;
52668;SDS011;59898;52.786;6.892;2023-08-30T04:45:34;17.65;;;13.63;;
52668;SDS011;59898;52.786;6.892;2023-08-30T04:48:55;15.38;;;13.65;;
52668;SDS011;59898;52.786;6.892;2023-08-30T04:52:16;14.55;;;12.32;;
52668;SDS011;59898;52.786;6.892;2023-08-30T04:55:36;16.67;;;13.18;;
52668;SDS011;59898;52.786;6.892;2023-08-30T04:58:57;15.50;;;12.85;;
52668;SDS011;59898;52.786;6.892;2023-08-30T05:02:17;17.02;;;13.02;;
52668;SDS011;59898;52.786;6.892;2023-08-30T05:05:38;16.83;;;12.98;;
52668;SDS011;59898;52.786;6.892;2023-08-30T05:08:59;15.70;;;13.02;;
52668;SDS011;59898;52.786;6.892;2023-08-30T05:12:19;15.85;;;12.73;;
52668;SDS011;59898;52.786;6.892;2023-08-30T05:15:40;18.27;;;13.68;;
52668;SDS011;59898;52.786;6.892;2023-08-30T05:19:00;16.90;;;13.27;;
52668;SDS011;59898;52.786;6.892;2023-08-30T05:22:21;16.88;;;12.77;;
52668;SDS011;59898;52.786;6.892;2023-08-30T05:25:42;13.90;;;12.40;;
52668;SDS011;59898;52.786;6.892;2023-08-30T05:29:05;16.00;;;12.40;;
52668;SDS011;59898;52.786;6.892;2023-08-30T05:32:26;16.65;;;12.85;;
52668;SDS011;59898;52.786;6.892;2023-08-30T05:35:46;13.50;;;11.63;;
52668;SDS011;59898;52.786;6.892;2023-08-30T05:39:07;17.58;;;14.77;;
52668;SDS011;59898;52.786;6.892;2023-08-30T05:42:27;15.27;;;11.82;;
52668;SDS011;59898;52.786;6.892;2023-08-30T05:45:48;14.82;;;12.45;;
52668;SDS011;59898;52.786;6.892;2023-08-30T05:49:08;16.83;;;11.80;;
52668;SDS011;59898;52.786;6.892;2023-08-30T05:52:29;12.73;;;11.10;;
52668;SDS011;59898;52.786;6.892;2023-08-30T05:55:49;18.33;;;12.68;;
52668;SDS011;59898;52.786;6.892;2023-08-30T05:59:10;15.15;;;11.23;;
52668;SDS011;59898;52.786;6.892;2023-08-30T06:02:31;20.75;;;15.02;;
52668;SDS011;59898;52.786;6.892;2023-08-30T06:05:51;14.50;;;11.57;;
52668;SDS011;59898;52.786;6.892;2023-08-30T06:09:12;15.40;;;12.15;;
52668;SDS011;59898;52.786;6.892;2023-08-30T06:12:33;14.75;;;12.32;;
52668;SDS011;59898;52.786;6.892;2023-08-30T06:15:53;17.10;;;13.23;;
52668;SDS011;59898;52.786;6.892;2023-08-30T06:19:15;15.45;;;12.50;;
52668;SDS011;59898;52.786;6.892;2023-08-30T06:22:35;16.02;;;12.55;;
52668;SDS011;59898;52.786;6.892;2023-08-30T06:25:56;14.02;;;11.40;;
52668;SDS011;59898;52.786;6.892;2023-08-30T06:29:17;15.25;;;12.48;;
52668;SDS011;59898;52.786;6.892;2023-08-30T06:32:37;17.27;;;13.77;;
52668;SDS011;59898;52.786;6.892;2023-08-30T06:35:58;17.50;;;12.15;;
52668;SDS011;59898;52.786;6.892;2023-08-30T06:39:18;15.93;;;12.55;;
52668;SDS011;59898;52.786;6.892;2023-08-30T06:42:39;20.55;;;13.02;;
52668;SDS011;59898;52.786;6.892;2023-08-30T06:45:59;15.98;;;11.85;;
52668;SDS011;59898;52.786;6.892;2023-08-30T06:49:20;17.52;;;13.25;;
52668;SDS011;59898;52.786;6.892;2023-08-30T06:52:41;18.15;;;12.13;;
52668;SDS011;59898;52.786;6.892;2023-08-30T06:56:01;17.67;;;12.70;;
52668;SDS011;59898;52.786;6.892;2023-08-30T06:59:22;16.90;;;12.40;;
52668;SDS011;59898;52.786;6.892;2023-08-30T07:02:43;15.07;;;12.13;;
52668;SDS011;59898;52.786;6.892;2023-08-30T07:06:06;16.75;;;12.18;;
52668;SDS011;59898;52.786;6.892;2023-08-30T07:09:27;14.32;;;11.90;;
52668;SDS011;59898;52.786;6.892;2023-08-30T07:12:52;18.00;;;12.85;;
52668;SDS011;59898;52.786;6.892;2023-08-30T07:16:12;15.80;;;12.48;;
52668;SDS011;59898;52.786;6.892;2023-08-30T07:19:33;18.80;;;13.73;;
52668;SDS011;59898;52.786;6.892;2023-08-30T07:22:53;18.02;;;12.52;;
52668;SDS011;59898;52.786;6.892;2023-08-30T07:26:14;16.38;;;12.50;;
52668;SDS011;59898;52.786;6.892;2023-08-30T07:29:34;18.95;;;11.80;;
52668;SDS011;59898;52.786;6.892;2023-08-30T07:32:55;14.35;;;12.52;;
52668;SDS011;59898;52.786;6.892;2023-08-30T07:36:16;16.98;;;11.63;;
52668;SDS011;59898;52.786;6.892;2023-08-30T07:39:37;15.68;;;12.00;;
52668;SDS011;59898;52.786;6.892;2023-08-30T07:42:57;14.35;;;11.68;;
52668;SDS011;59898;52.786;6.892;2023-08-30T07:46:18;18.67;;;12.02;;
52668;SDS011;59898;52.786;6.892;2023-08-30T07:49:38;14.23;;;11.65;;
52668;SDS011;59898;52.786;6.892;2023-08-30T07:52:59;14.43;;;12.23;;
52668;SDS011;59898;52.786;6.892;2023-08-30T07:56:19;14.95;;;11.82;;
52668;SDS011;59898;52.786;6.892;2023-08-30T07:59:40;14.95;;;11.77;;
52668;SDS011;59898;52.786;6.892;2023-08-30T08:03:01;14.23;;;11.80;;
52668;SDS011;59898;52.786;6.892;2023-08-30T08:06:22;15.07;;;12.02;;
52668;SDS011;59898;52.786;6.892;2023-08-30T08:09:42;15.10;;;12.15;;
52668;SDS011;59898;52.786;6.892;2023-08-30T08:13:03;15.85;;;11.95;;
52668;SDS011;59898;52.786;6.892;2023-08-30T08:16:24;15.85;;;13.10;;
52668;SDS011;59898;52.786;6.892;2023-08-30T08:19:44;15.38;;;11.23;;
52668;SDS011;59898;52.786;6.892;2023-08-30T08:23:05;14.18;;;10.32;;
52668;SDS011;59898;52.786;6.892;2023-08-30T08:26:26;13.10;;;10.18;;
52668;SDS011;59898;52.786;6.892;2023-08-30T08:29:46;15.00;;;11.15;;
52668;SDS011;59898;52.786;6.892;2023-08-30T08:33:07;13.70;;;10.23;;
52668;SDS011;59898;52.786;6.892;2023-08-30T08:36:27;16.23;;;11.13;;
52668;SDS011;59898;52.786;6.892;2023-08-30T08:39:48;13.85;;;10.20;;
52668;SDS011;59898;52.786;6.892;2023-08-30T08:43:11;18.80;;;12.75;;
52668;SDS011;59898;52.786;6.892;2023-08-30T08:46:32;12.65;;;10.35;;
52668;SDS011;59898;52.786;6.892;2023-08-30T08:49:55;13.50;;;9.95;;
52668;SDS011;59898;52.786;6.892;2023-08-30T08:53:16;12.98;;;10.48;;
52668;SDS011;59898;52.786;6.892;2023-08-30T08:56:37;12.23;;;9.77;;
52668;SDS011;59898;52.786;6.892;2023-08-30T08:59:58;16.05;;;10.77;;
52668;SDS011;59898;52.786;6.892;2023-08-30T09:03:19;15.85;;;9.70;;
52668;SDS011;59898;52.786;6.892;2023-08-30T09:06:41;15.52;;;10.77;;
52668;SDS011;59898;52.786;6.892;2023-08-30T09:10:03;15.35;;;10.65;;
52668;SDS011;59898;52.786;6.892;2023-08-30T09:13:24;13.43;;;10.25;;
52668;SDS011;59898;52.786;6.892;2023-08-30T09:16:59;11.30;;;9.68;;
52668;SDS011;59898;52.786;6.892;2023-08-30T09:20:20;12.93;;;9.63;;
52668;SDS011;59898;52.786;6.892;2023-08-30T09:23:41;10.90;;;9.13;;
52668;SDS011;59898;52.786;6.892;2023-08-30T09:27:03;12.35;;;10.45;;
52668;SDS011;59898;52.786;6.892;2023-08-30T09:30:23;12.77;;;9.63;;
52668;SDS011;59898;52.786;6.892;2023-08-30T09:33:44;11.10;;;9.15;;
52668;SDS011;59898;52.786;6.892;2023-08-30T09:37:05;14.40;;;9.68;;
52668;SDS011;59898;52.786;6.892;2023-08-30T09:40:26;14.52;;;10.52;;
52668;SDS011;59898;52.786;6.892;2023-08-30T09:43:46;16.50;;;10.43;;
52668;SDS011;59898;52.786;6.892;2023-08-30T09:47:07;13.80;;;10.35;;
52668;SDS011;59898;52.786;6.892;2023-08-30T09:50:28;14.23;;;10.45;;
52668;SDS011;59898;52.786;6.892;2023-08-30T09:53:53;12.43;;;10.13;;
52668;SDS011;59898;52.786;6.892;2023-08-30T09:57:21;13.25;;;10.27;;
52668;SDS011;59898;52.786;6.892;2023-08-30T10:00:42;12.43;;;10.68;;
52668;SDS011;59898;52.786;6.892;2023-08-30T10:04:03;17.92;;;11.95;;
52668;SDS011;59898;52.786;6.892;2023-08-30T10:07:25;14.10;;;10.73;;
52668;SDS011;59898;52.786;6.892;2023-08-30T10:10:46;14.82;;;11.27;;
52668;SDS011;59898;52.786;6.892;2023-08-30T10:14:07;15.02;;;10.70;;
52668;SDS011;59898;52.786;6.892;2023-08-30T10:17:29;14.40;;;10.88;;
52668;SDS011;59898;52.786;6.892;2023-08-30T10:20:52;14.40;;;11.48;;
52668;SDS011;59898;52.786;6.892;2023-08-30T10:27:38;12.27;;;9.57;;
52668;SDS011;59898;52.786;6.892;2023-08-30T10:31:01;11.98;;;10.02;;
52668;SDS011;59898;52.786;6.892;2023-08-30T10:34:23;11.40;;;9.25;;
52668;SDS011;59898;52.786;6.892;2023-08-30T10:37:54;14.82;;;10.85;;
52668;SDS011;59898;52.786;6.892;2023-08-30T10:44:49;12.48;;;9.18;;
52668;SDS011;59898;52.786;6.892;2023-08-30T10:48:17;11.88;;;9.65;;
52668;SDS011;59898;52.786;6.892;2023-08-30T10:51:38;10.57;;;9.13;;
52668;SDS011;59898;52.786;6.892;2023-08-30T10:55:12;12.35;;;9.70;;
52668;SDS011;59898;52.786;6.892;2023-08-30T10:58:41;12.65;;;8.77;;
52668;SDS011;59898;52.786;6.892;2023-08-30T11:02:03;11.80;;;9.85;;
52668;SDS011;59898;52.786;6.892;2023-08-30T11:05:26;12.60;;;10.13;;
52668;SDS011;59898;52.786;6.892;2023-08-30T11:08:48;11.05;;;9.43;;
52668;SDS011;59898;52.786;6.892;2023-08-30T11:12:09;18.02;;;13.65;;
52668;SDS011;59898;52.786;6.892;2023-08-30T11:15:30;12.95;;;10.95;;
52668;SDS011;59898;52.786;6.892;2023-08-30T11:18:51;13.30;;;10.63;;
52668;SDS011;59898;52.786;6.892;2023-08-30T11:22:12;15.13;;;11.40;;
52668;SDS011;59898;52.786;6.892;2023-08-30T11:25:33;14.90;;;12.48;;
52668;SDS011;59898;52.786;6.892;2023-08-30T11:28:53;14.40;;;11.20;;
52668;SDS011;59898;52.786;6.892;2023-08-30T11:32:14;12.10;;;10.57;;
52668;SDS011;59898;52.786;6.892;2023-08-30T11:35:36;15.87;;;12.47;;
52668;SDS011;59898;52.786;6.892;2023-08-30T11:38:58;17.20;;;12.88;;
52668;SDS011;59898;52.786;6.892;2023-08-30T11:42:19;15.27;;;13.48;;
52668;SDS011;59898;52.786;6.892;2023-08-30T11:45:39;22.15;;;15.07;;
52668;SDS011;59898;52.786;6.892;2023-08-30T11:49:00;20.27;;;15.23;;
52668;SDS011;59898;52.786;6.892;2023-08-30T11:52:22;26.10;;;15.40;;
52668;SDS011;59898;52.786;6.892;2023-08-30T11:55:44;18.70;;;16.67;;
52668;SDS011;59898;52.786;6.892;2023-08-30T11:59:05;22.67;;;17.58;;
52668;SDS011;59898;52.786;6.892;2023-08-30T12:02:26;20.58;;;17.30;;
52668;SDS011;59898;52.786;6.892;2023-08-30T12:05:47;20.50;;;16.42;;
52668;SDS011;59898;52.786;6.892;2023-08-30T12:09:12;19.60;;;15.17;;
52668;SDS011;59898;52.786;6.892;2023-08-30T12:12:33;19.85;;;14.13;;
52668;SDS011;59898;52.786;6.892;2023-08-30T12:15:57;17.20;;;14.07;;
52668;SDS011;59898;52.786;6.892;2023-08-30T12:19:19;17.73;;;15.02;;
52668;SDS011;59898;52.786;6.892;2023-08-30T12:22:39;17.35;;;13.80;;
52668;SDS011;59898;52.786;6.892;2023-08-30T12:26:00;20.80;;;15.70;;
52668;SDS011;59898;52.786;6.892;2023-08-30T12:29:23;19.00;;;15.32;;
52668;SDS011;59898;52.786;6.892;2023-08-30T12:32:44;17.88;;;13.20;;
52668;SDS011;59898;52.786;6.892;2023-08-30T12:36:05;14.20;;;12.18;;
52668;SDS011;59898;52.786;6.892;2023-08-30T12:39:26;17.48;;;12.85;;
52668;SDS011;59898;52.786;6.892;2023-08-30T12:42:46;13.23;;;11.82;;
52668;SDS011;59898;52.786;6.892;2023-08-30T12:46:07;13.77;;;11.75;;
52668;SDS011;59898;52.786;6.892;2023-08-30T12:49:28;13.43;;;10.90;;
52668;SDS011;59898;52.786;6.892;2023-08-30T12:52:48;12.23;;;10.82;;
52668;SDS011;59898;52.786;6.892;2023-08-30T12:56:09;13.25;;;10.32;;
52668;SDS011;59898;52.786;6.892;2023-08-30T12:59:29;11.55;;;10.35;;
52668;SDS011;59898;52.786;6.892;2023-08-30T13:02:50;12.45;;;10.48;;
52668;SDS011;59898;52.786;6.892;2023-08-30T13:06:10;11.70;;;8.93;;
52668;SDS011;59898;52.786;6.892;2023-08-30T13:09:31;9.88;;;8.88;;
52668;SDS011;59898;52.786;6.892;2023-08-30T13:12:52;8.27;;;6.90;;
52668;SDS011;59898;52.786;6.892;2023-08-30T13:16:12;10.10;;;8.90;;
52668;SDS011;59898;52.786;6.892;2023-08-30T13:19:33;10.73;;;8.88;;
52668;SDS011;59898;52.786;6.892;2023-08-30T13:22:54;8.88;;;7.60;;
52668;SDS011;59898;52.786;6.892;2023-08-30T13:26:14;9.80;;;8.05;;
52668;SDS011;59898;52.786;6.892;2023-08-30T13:29:35;8.23;;;6.93;;
52668;SDS011;59898;52.786;6.892;2023-08-30T13:32:56;9.40;;;7.00;;
52668;SDS011;59898;52.786;6.892;2023-08-30T13:36:16;10.52;;;7.50;;
52668;SDS011;59898;52.786;6.892;2023-08-30T13:39:38;8.65;;;7.75;;
52668;SDS011;59898;52.786;6.892;2023-08-30T13:42:59;7.85;;;7.07;;
52668;SDS011;59898;52.786;6.892;2023-08-30T13:46:19;8.43;;;7.60;;
52668;SDS011;59898;52.786;6.892;2023-08-30T13:49:40;10.63;;;8.48;;
52668;SDS011;59898;52.786;6.892;2023-08-30T13:53:00;9.25;;;8.30;;
52668;SDS011;59898;52.786;6.892;2023-08-30T13:56:22;9.18;;;8.18;;
52668;SDS011;59898;52.786;6.892;2023-08-30T13:59:43;9.60;;;8.60;;
52668;SDS011;59898;52.786;6.892;2023-08-30T14:03:04;10.20;;;9.18;;
52668;SDS011;59898;52.786;6.892;2023-08-30T14:06:24;12.05;;;9.93;;
52668;SDS011;59898;52.786;6.892;2023-08-30T14:09:45;10.57;;;9.40;;
52668;SDS011;59898;52.786;6.892;2023-08-30T14:13:05;11.40;;;9.38;;
52668;SDS011;59898;52.786;6.892;2023-08-30T14:16:26;12.35;;;10.43;;
52668;SDS011;59898;52.786;6.892;2023-08-30T14:19:46;13.05;;;10.82;;
52668;SDS011;59898;52.786;6.892;2023-08-30T14:23:07;11.95;;;10.30;;
52668;SDS011;59898;52.786;6.892;2023-08-30T14:26:28;10.90;;;9.80;;
52668;SDS011;59898;52.786;6.892;2023-08-30T14:29:48;11.90;;;10.57;;
52668;SDS011;59898;52.786;6.892;2023-08-30T14:33:09;11.57;;;9.38;;
52668;SDS011;59898;52.786;6.892;2023-08-30T14:36:30;11.40;;;9.60;;
52668;SDS011;59898;52.786;6.892;2023-08-30T14:39:52;17.80;;;14.75;;
52668;SDS011;59898;52.786;6.892;2023-08-30T14:43:13;7.43;;;6.73;;
52668;SDS011;59898;52.786;6.892;2023-08-30T14:46:34;5.25;;;4.45;;
52668;SDS011;59898;52.786;6.892;2023-08-30T14:49:55;5.40;;;4.57;;
52668;SDS011;59898;52.786;6.892;2023-08-30T14:53:17;5.80;;;5.07;;
52668;SDS011;59898;52.786;6.892;2023-08-30T14:56:40;3.78;;;3.00;;
52668;SDS011;59898;52.786;6.892;2023-08-30T15:00:03;3.47;;;2.55;;
52668;SDS011;59898;52.786;6.892;2023-08-30T15:03:27;2.05;;;1.77;;
52668;SDS011;59898;52.786;6.892;2023-08-30T15:06:48;3.10;;;1.98;;
52668;SDS011;59898;52.786;6.892;2023-08-30T15:10:08;2.00;;;1.70;;
52668;SDS011;59898;52.786;6.892;2023-08-30T15:13:30;2.60;;;2.08;;
52668;SDS011;59898;52.786;6.892;2023-08-30T15:16:50;2.60;;;2.10;;
52668;SDS011;59898;52.786;6.892;2023-08-30T15:20:11;2.72;;;2.10;;
52668;SDS011;59898;52.786;6.892;2023-08-30T15:23:32;3.42;;;2.63;;
52668;SDS011;59898;52.786;6.892;2023-08-30T15:26:52;3.20;;;2.50;;
52668;SDS011;59898;52.786;6.892;2023-08-30T15:30:13;3.30;;;2.50;;
52668;SDS011;59898;52.786;6.892;2023-08-30T15:33:33;2.83;;;2.40;;
52668;SDS011;59898;52.786;6.892;2023-08-30T15:36:54;3.00;;;2.53;;
52668;SDS011;59898;52.786;6.892;2023-08-30T15:40:15;3.03;;;2.10;;
52668;SDS011;59898;52.786;6.892;2023-08-30T15:43:36;5.50;;;4.35;;
52668;SDS011;59898;52.786;6.892;2023-08-30T15:47:02;4.95;;;3.15;;
52668;SDS011;59898;52.786;6.892;2023-08-30T15:50:22;3.50;;;2.53;;
52668;SDS011;59898;52.786;6.892;2023-08-30T15:53:43;3.85;;;2.90;;
52668;SDS011;59898;52.786;6.892;2023-08-30T15:57:04;3.13;;;2.58;;
52668;SDS011;59898;52.786;6.892;2023-08-30T16:00:24;3.78;;;2.80;;
52668;SDS011;59898;52.786;6.892;2023-08-30T16:03:45;11.43;;;3.40;;
52668;SDS011;59898;52.786;6.892;2023-08-30T16:07:05;4.05;;;3.28;;
52668;SDS011;59898;52.786;6.892;2023-08-30T16:10:27;3.72;;;3.22;;
52668;SDS011;59898;52.786;6.892;2023-08-30T16:13:48;6.75;;;4.57;;
52668;SDS011;59898;52.786;6.892;2023-08-30T16:17:08;4.00;;;3.58;;
52668;SDS011;59898;52.786;6.892;2023-08-30T16:20:30;3.65;;;2.90;;
52668;SDS011;59898;52.786;6.892;2023-08-30T16:23:51;4.13;;;3.38;;
52668;SDS011;59898;52.786;6.892;2023-08-30T16:27:11;5.32;;;3.42;;
52668;SDS011;59898;52.786;6.892;2023-08-30T16:30:35;3.72;;;2.88;;
52668;SDS011;59898;52.786;6.892;2023-08-30T16:33:55;5.85;;;3.40;;
52668;SDS011;59898;52.786;6.892;2023-08-30T16:37:16;3.15;;;2.83;;
52668;SDS011;59898;52.786;6.892;2023-08-30T16:40:38;5.10;;;3.13;;
52668;SDS011;59898;52.786;6.892;2023-08-30T16:43:58;3.58;;;2.65;;
52668;SDS011;59898;52.786;6.892;2023-08-30T16:47:19;5.05;;;2.47;;
52668;SDS011;59898;52.786;6.892;2023-08-30T16:50:39;4.15;;;2.70;;
52668;SDS011;59898;52.786;6.892;2023-08-30T16:54:00;2.75;;;2.30;;
52668;SDS011;59898;52.786;6.892;2023-08-30T16:57:21;5.00;;;2.35;;
52668;SDS011;59898;52.786;6.892;2023-08-30T17:00:45;7.82;;;5.80;;
52668;SDS011;59898;52.786;6.892;2023-08-30T17:04:05;7.50;;;4.57;;
52668;SDS011;59898;52.786;6.892;2023-08-30T17:07:26;5.90;;;3.45;;
52668;SDS011;59898;52.786;6.892;2023-08-30T17:10:47;5.15;;;3.60;;
52668;SDS011;59898;52.786;6.892;2023-08-30T17:14:10;5.53;;;2.90;;
52668;SDS011;59898;52.786;6.892;2023-08-30T17:17:31;4.38;;;2.90;;
52668;SDS011;59898;52.786;6.892;2023-08-30T17:20:51;4.50;;;2.42;;
52668;SDS011;59898;52.786;6.892;2023-08-30T17:24:12;3.58;;;2.58;;
52668;SDS011;59898;52.786;6.892;2023-08-30T17:27:35;4.45;;;2.03;;
52668;SDS011;59898;52.786;6.892;2023-08-30T17:30:56;4.50;;;2.00;;
52668;SDS011;59898;52.786;6.892;2023-08-30T17:34:17;11.57;;;2.90;;
52668;SDS011;59898;52.786;6.892;2023-08-30T17:37:38;4.32;;;2.28;;
52668;SDS011;59898;52.786;6.892;2023-08-30T17:40:58;7.60;;;3.60;;
52668;SDS011;59898;52.786;6.892;2023-08-30T17:44:19;8.95;;;3.35;;
52668;SDS011;59898;52.786;6.892;2023-08-30T17:47:40;7.05;;;3.40;;
52668;SDS011;59898;52.786;6.892;2023-08-30T17:51:01;12.13;;;8.60;;
52668;SDS011;59898;52.786;6.892;2023-08-30T17:54:23;15.13;;;10.48;;
52668;SDS011;59898;52.786;6.892;2023-08-30T17:57:43;9.48;;;3.25;;
52668;SDS011;59898;52.786;6.892;2023-08-30T18:01:06;7.00;;;3.33;;
52668;SDS011;59898;52.786;6.892;2023-08-30T18:04:29;6.60;;;2.33;;
52668;SDS011;59898;52.786;6.892;2023-08-30T18:07:50;4.60;;;2.30;;
52668;SDS011;59898;52.786;6.892;2023-08-30T18:11:19;4.97;;;2.20;;
52668;SDS011;59898;52.786;6.892;2023-08-30T18:14:41;6.72;;;2.60;;
52668;SDS011;59898;52.786;6.892;2023-08-30T18:18:06;5.55;;;2.45;;
52668;SDS011;59898;52.786;6.892;2023-08-30T18:21:27;6.20;;;2.42;;
52668;SDS011;59898;52.786;6.892;2023-08-30T18:24:49;5.97;;;2.50;;
52668;SDS011;59898;52.786;6.892;2023-08-30T18:28:10;5.22;;;2.40;;
52668;SDS011;59898;52.786;6.892;2023-08-30T18:31:32;5.63;;;2.60;;
52668;SDS011;59898;52.786;6.892;2023-08-30T18:34:52;5.50;;;2.50;;
52668;SDS011;59898;52.786;6.892;2023-08-30T18:38:13;6.22;;;2.42;;
52668;SDS011;59898;52.786;6.892;2023-08-30T18:41:33;6.97;;;2.22;;
52668;SDS011;59898;52.786;6.892;2023-08-30T18:44:54;4.63;;;2.55;;
52668;SDS011;59898;52.786;6.892;2023-08-30T18:48:14;4.95;;;2.40;;
52668;SDS011;59898;52.786;6.892;2023-08-30T18:51:35;5.70;;;2.50;;
52668;SDS011;59898;52.786;6.892;2023-08-30T18:54:56;9.98;;;2.65;;
52668;SDS011;59898;52.786;6.892;2023-08-30T18:58:17;5.22;;;2.15;;
52668;SDS011;59898;52.786;6.892;2023-08-30T19:01:37;5.22;;;2.78;;
52668;SDS011;59898;52.786;6.892;2023-08-30T19:04:58;6.20;;;2.70;;
52668;SDS011;59898;52.786;6.892;2023-08-30T19:08:19;4.25;;;2.40;;
52668;SDS011;59898;52.786;6.892;2023-08-30T19:11:40;7.28;;;3.03;;
52668;SDS011;59898;52.786;6.892;2023-08-30T19:15:00;6.93;;;2.97;;
52668;SDS011;59898;52.786;6.892;2023-08-30T19:18:22;6.97;;;3.33;;
52668;SDS011;59898;52.786;6.892;2023-08-30T19:21:43;6.10;;;2.58;;
52668;SDS011;59898;52.786;6.892;2023-08-30T19:25:04;4.25;;;2.50;;
52668;SDS011;59898;52.786;6.892;2023-08-30T19:28:26;4.80;;;2.55;;
52668;SDS011;59898;52.786;6.892;2023-08-30T19:31:47;5.45;;;2.88;;
52668;SDS011;59898;52.786;6.892;2023-08-30T19:35:08;4.20;;;3.13;;
52668;SDS011;59898;52.786;6.892;2023-08-30T19:38:31;7.07;;;3.40;;
52668;SDS011;59898;52.786;6.892;2023-08-30T19:41:52;7.15;;;3.35;;
52668;SDS011;59898;52.786;6.892;2023-08-30T19:45:13;7.05;;;2.95;;
52668;SDS011;59898;52.786;6.892;2023-08-30T19:48:36;5.72;;;3.05;;
52668;SDS011;59898;52.786;6.892;2023-08-30T19:51:56;8.68;;;3.65;;
52668;SDS011;59898;52.786;6.892;2023-08-30T19:55:17;5.63;;;3.28;;